Time;durP1;ratioP1;P1;durP2;ratioP2;P2;SDS_P1;SDS_P2;PMS_P1;PMS_P2;Temp;Humidity;BMP_temperature;BMP_pressure;BME280_temperature;BME280_humidity;BME280_pressure;Samples;Min_cycle;Max_cycle;Signal;HPM_P1;HPM_P2
2021/10/19 00:01:17;;;;;;;;;;;;;;;13.60;100.00;99454.91;4957364;28;19972;-66
2021/10/19 00:03:42;;;;;;;;;;;;;;;13.78;100.00;99467.16;4963367;28;20366;-68
2021/10/19 00:06:10;;;;;;;;;;;;;;;13.85;100.00;99456.56;4962322;28;19946;-67
2021/10/19 00:08:35;;;;;;;;;;;;;;;14.16;100.00;99449.31;4902960;28;19938;-67
2021/10/19 00:11:01;;;;;;;;;;;;;;;14.02;100.00;99448.97;4934998;28;19919;-67
2021/10/19 00:13:26;;;;;;;;;;;;;;;14.14;100.00;99451.09;4917004;28;20393;-66
2021/10/19 00:15:51;;;;;;;;;;;;;;;14.12;100.00;99446.91;4893441;29;19966;-66
2021/10/19 00:18:17;;;;;;;;;;;;;;;14.08;100.00;99451.34;4893745;29;20033;-66
2021/10/19 00:20:42;;;;;;;;;;;;;;;14.19;100.00;99458.69;4894565;29;19954;-66
2021/10/19 00:23:08;;;;;;;;;;;;;;;14.17;100.00;99460.50;4893405;29;20413;-67
2021/10/19 00:25:33;;;;;;;;;;;;;;;14.10;100.00;99459.91;4898683;28;19923;-67
2021/10/19 00:27:59;;;;;;;;;;;;;;;13.97;100.00;99469.88;4966565;28;19926;-68
2021/10/19 00:30:24;;;;;;;;;;;;;;;14.24;100.00;99469.72;4935021;28;19919;-67
2021/10/19 00:32:50;;;;;;;;;;;;;;;14.07;100.00;99462.63;4943187;28;20013;-67
2021/10/19 00:35:15;;;;;;;;;;;;;;;14.07;100.00;99467.81;4930872;28;20274;-66
2021/10/19 00:37:41;;;;;;;;;;;;;;;14.18;100.00;99464.75;4943041;28;19923;-66
2021/10/19 00:40:07;;;;;;;;;;;;;;;14.10;100.00;99454.72;4947949;28;20304;-66
2021/10/19 00:42:36;;;;;;;;;;;;;;;14.43;100.00;99451.69;4951414;28;19962;-67
2021/10/19 00:45:02;;;;;;;;;;;;;;;14.07;100.00;99444.50;4964877;28;20401;-67
2021/10/19 00:47:27;;;;;;;;;;;;;;;14.27;100.00;99438.50;4956293;28;19925;-67
2021/10/19 00:49:53;;;;;;;;;;;;;;;14.30;100.00;99445.28;4949754;28;19919;-66
2021/10/19 00:52:18;;;;;;;;;;;;;;;14.44;100.00;99437.84;4950390;28;19926;-67
2021/10/19 00:54:44;;;;;;;;;;;;;;;14.47;100.00;99437.69;4930574;29;19950;-66
2021/10/19 00:57:10;;;;;;;;;;;;;;;14.22;100.00;99438.69;4933365;28;20371;-64
2021/10/19 00:59:37;;;;;;;;;;;;;;;14.13;100.00;99440.81;4947339;28;20367;-63
2021/10/19 01:02:03;;;;;;;;;;;;;;;14.08;100.00;99440.16;4936080;28;19923;-64
2021/10/19 01:04:29;;;;;;;;;;;;;;;14.26;100.00;99429.06;4953979;28;19914;-64
2021/10/19 01:06:54;;;;;;;;;;;;;;;14.36;100.00;99424.34;4955115;28;20386;-64
2021/10/19 01:09:19;;;;;;;;;;;;;;;14.16;100.00;99401.81;4942420;28;19917;-64
2021/10/19 01:11:45;;;;;;;;;;;;;;;14.40;100.00;99411.19;4945111;28;20012;-63
2021/10/19 01:14:10;;;;;;;;;;;;;;;14.34;100.00;99392.47;4994397;28;19917;-66
2021/10/19 01:16:36;;;;;;;;;;;;;;;14.29;100.00;99386.63;5010726;28;19913;-66
2021/10/19 01:19:01;;;;;;;;;;;;;;;14.12;100.00;99388.16;4973481;28;20261;-66
2021/10/19 01:21:26;;;;;;;;;;;;;;;14.15;100.00;99390.63;4930284;29;19977;-66
2021/10/19 01:23:52;;;;;;;;;;;;;;;14.23;100.00;99401.53;4930214;29;19915;-66
2021/10/19 01:26:17;;;;;;;;;;;;;;;14.37;100.00;99405.31;4930203;29;19919;-66
2021/10/19 01:28:43;;;;;;;;;;;;;;;14.25;100.00;99408.38;4930476;29;19922;-66
2021/10/19 01:31:10;;;;;;;;;;;;;;;14.48;100.00;99417.78;4930258;29;20001;-66
2021/10/19 01:33:36;;;;;;;;;;;;;;;14.26;100.00;99405.72;4935281;28;20021;-64
2021/10/19 01:36:01;;;;;;;;;;;;;;;14.39;100.00;99413.84;4949870;28;20494;-64
2021/10/19 01:38:29;;;;;;;;;;;;;;;14.31;100.00;99408.97;4946589;28;19922;-67
2021/10/19 01:40:55;;;;;;;;;;;;;;;14.23;100.00;99406.72;4932042;28;19922;-68
2021/10/19 01:43:21;;;;;;;;;;;;;;;14.25;100.00;99405.78;4931623;28;19927;-67
2021/10/19 01:45:48;;;;;;;;;;;;;;;14.41;100.00;99405.13;4931725;28;19927;-67
2021/10/19 01:48:13;;;;;;;;;;;;;;;14.35;100.00;99407.13;4936249;28;19923;-67
2021/10/19 01:50:39;;;;;;;;;;;;;;;14.50;100.00;99398.69;4899660;28;19930;-63
2021/10/19 01:53:05;;;;;;;;;;;;;;;14.33;100.00;99401.16;4952671;28;19918;-67
2021/10/19 01:55:31;;;;;;;;;;;;;;;14.39;100.00;99403.47;4946662;28;20012;-67
2021/10/19 01:57:56;;;;;;;;;;;;;;;14.28;100.00;99410.84;4957817;28;20035;-67
2021/10/19 02:00:22;;;;;;;;;;;;;;;14.34;100.00;99405.41;4954649;28;19919;-68
2021/10/19 02:02:47;;;;;;;;;;;;;;;14.15;100.00;99398.38;4961539;28;19941;-68
2021/10/19 02:05:12;;;;;;;;;;;;;;;14.42;100.00;99390.41;4957623;28;19926;-67
2021/10/19 02:07:38;;;;;;;;;;;;;;;14.42;100.00;99387.81;4902521;28;20415;-67
2021/10/19 02:10:05;;;;;;;;;;;;;;;14.35;100.00;99387.22;4933719;28;19923;-67
2021/10/19 02:12:30;;;;;;;;;;;;;;;14.41;100.00;99380.94;4929486;28;19915;-67
2021/10/19 02:14:55;;;;;;;;;;;;;;;14.41;100.00;99374.03;4929307;28;19919;-67
2021/10/19 02:17:21;;;;;;;;;;;;;;;14.15;100.00;99380.25;4929491;28;20028;-67
2021/10/19 02:19:46;;;;;;;;;;;;;;;14.36;100.00;99383.72;4937123;28;19917;-67
2021/10/19 02:22:12;;;;;;;;;;;;;;;14.40;100.00;99376.66;4909345;28;20081;-67
2021/10/19 02:24:37;;;;;;;;;;;;;;;14.56;100.00;99382.91;4943668;28;20054;-67
2021/10/19 02:27:03;;;;;;;;;;;;;;;14.53;100.00;99382.16;4933551;28;20068;-67
2021/10/19 02:29:28;;;;;;;;;;;;;;;14.46;100.00;99384.19;4935175;28;19922;-67
2021/10/19 02:31:54;;;;;;;;;;;;;;;14.61;100.00;99378.38;4930100;28;19927;-66
2021/10/19 02:34:22;;;;;;;;;;;;;;;14.80;100.00;99364.63;4937617;28;20311;-67
2021/10/19 02:36:47;;;;;;;;;;;;;;;14.48;100.00;99372.00;4935582;28;19918;-67
2021/10/19 02:39:12;;;;;;;;;;;;;;;14.35;100.00;99366.50;4934279;28;19961;-64
2021/10/19 02:41:38;;;;;;;;;;;;;;;14.44;100.00;99360.09;4940540;28;19919;-64
2021/10/19 02:44:04;;;;;;;;;;;;;;;14.45;100.00;99348.81;4938524;28;19922;-64
2021/10/19 02:46:31;;;;;;;;;;;;;;;14.29;100.00;99363.31;4960176;28;20396;-64
2021/10/19 02:48:59;;;;;;;;;;;;;;;14.34;100.00;99358.78;4905541;28;19923;-64
2021/10/19 02:51:25;;;;;;;;;;;;;;;14.32;100.00;99358.00;4927055;28;19915;-64
2021/10/19 02:53:50;;;;;;;;;;;;;;;14.46;100.00;99368.66;4931590;29;20435;-64
2021/10/19 02:56:15;;;;;;;;;;;;;;;14.51;100.00;99363.28;4906952;28;19968;-64
2021/10/19 02:58:41;;;;;;;;;;;;;;;14.64;100.00;99357.53;4957966;28;19997;-63
2021/10/19 03:01:06;;;;;;;;;;;;;;;14.71;100.00;99362.44;4922020;28;19915;-64
2021/10/19 03:03:31;;;;;;;;;;;;;;;14.44;100.00;99357.50;4922368;28;19919;-63
2021/10/19 03:05:57;;;;;;;;;;;;;;;14.84;100.00;99350.63;4929942;28;20291;-63
2021/10/19 03:08:22;;;;;;;;;;;;;;;14.50;100.00;99351.19;4933877;28;20383;-67
2021/10/19 03:10:48;;;;;;;;;;;;;;;14.37;100.00;99349.13;4929791;28;19972;-67
2021/10/19 03:13:13;;;;;;;;;;;;;;;14.53;100.00;99348.47;4936891;28;19918;-67
2021/10/19 03:15:39;;;;;;;;;;;;;;;14.58;100.00;99350.00;4932181;28;19962;-67
2021/10/19 03:18:04;;;;;;;;;;;;;;;14.62;100.00;99348.97;4938372;28;20006;-64
2021/10/19 03:20:30;;;;;;;;;;;;;;;14.75;100.00;99344.09;4955517;28;19923;-65
2021/10/19 03:22:56;;;;;;;;;;;;;;;14.99;100.00;99339.56;4953563;28;19980;-64
2021/10/19 03:25:21;;;;;;;;;;;;;;;14.91;100.00;99339.06;4954625;28;19956;-64
2021/10/19 03:27:47;;;;;;;;;;;;;;;14.66;100.00;99336.69;4949626;28;19922;-64
2021/10/19 03:30:13;;;;;;;;;;;;;;;14.70;100.00;99327.06;4934076;28;19918;-67
2021/10/19 03:32:38;;;;;;;;;;;;;;;14.59;100.00;99337.88;4938500;28;19937;-63
2021/10/19 03:35:04;;;;;;;;;;;;;;;14.42;100.00;99325.63;4946886;28;20019;-64
2021/10/19 03:37:29;;;;;;;;;;;;;;;14.59;100.00;99327.50;4942213;28;19928;-67
2021/10/19 03:39:54;;;;;;;;;;;;;;;14.53;100.00;99328.59;4959174;28;19997;-67
2021/10/19 03:42:20;;;;;;;;;;;;;;;14.55;100.00;99321.63;4929145;28;20313;-67
2021/10/19 03:44:45;;;;;;;;;;;;;;;14.85;100.00;99323.78;4933221;28;20510;-67
2021/10/19 03:47:11;;;;;;;;;;;;;;;14.59;100.00;99327.50;4928083;28;19930;-66
2021/10/19 03:49:36;;;;;;;;;;;;;;;14.63;100.00;99327.31;4935323;28;19962;-64
2021/10/19 03:52:01;;;;;;;;;;;;;;;14.69;100.00;99327.94;4963287;28;20353;-63
2021/10/19 03:54:27;;;;;;;;;;;;;;;14.61;100.00;99323.94;4948474;28;19921;-64
2021/10/19 03:56:52;;;;;;;;;;;;;;;14.54;100.00;99317.34;4947614;28;19922;-64
2021/10/19 03:59:18;;;;;;;;;;;;;;;14.57;100.00;99332.78;4944696;28;20434;-63
2021/10/19 04:01:43;;;;;;;;;;;;;;;14.69;100.00;99327.94;4955508;28;19923;-64
2021/10/19 04:04:09;;;;;;;;;;;;;;;14.56;100.00;99318.13;4927568;28;19919;-64
2021/10/19 04:06:35;;;;;;;;;;;;;;;14.54;100.00;99314.75;4913849;28;19923;-64
2021/10/19 04:09:00;;;;;;;;;;;;;;;14.61;100.00;99320.50;4925127;28;20327;-64
2021/10/19 04:11:25;;;;;;;;;;;;;;;14.75;100.00;99317.31;4941051;28;20338;-63
2021/10/19 04:13:51;;;;;;;;;;;;;;;14.60;100.00;99309.31;4950130;28;19981;-66
2021/10/19 04:16:16;;;;;;;;;;;;;;;14.52;100.00;99320.88;4930882;28;19934;-64
2021/10/19 04:18:42;;;;;;;;;;;;;;;14.40;100.00;99328.28;4922253;28;20288;-63
2021/10/19 04:21:07;;;;;;;;;;;;;;;14.67;100.00;99327.19;4943721;28;19910;-64
2021/10/19 04:23:32;;;;;;;;;;;;;;;14.96;100.00;99326.75;4929153;28;20332;-67
2021/10/19 04:25:58;;;;;;;;;;;;;;;15.01;100.00;99329.97;4928151;28;20390;-67
2021/10/19 04:28:23;;;;;;;;;;;;;;;15.02;100.00;99323.88;4930563;28;19914;-67
2021/10/19 04:30:50;;;;;;;;;;;;;;;14.99;100.00;99320.59;4927393;28;20438;-67
2021/10/19 04:33:15;;;;;;;;;;;;;;;14.68;100.00;99327.13;4921708;28;19922;-67
2021/10/19 04:35:41;;;;;;;;;;;;;;;14.64;100.00;99326.41;4932619;28;20347;-67
2021/10/19 04:38:06;;;;;;;;;;;;;;;14.64;100.00;99320.38;4936547;28;19922;-64
2021/10/19 04:40:32;;;;;;;;;;;;;;;14.95;100.00;99325.06;4935354;28;20010;-67
2021/10/19 04:42:57;;;;;;;;;;;;;;;14.82;100.00;99327.38;4956501;28;19968;-64
2021/10/19 04:45:23;;;;;;;;;;;;;;;15.03;100.00;99330.75;4906956;28;19922;-66
2021/10/19 04:47:49;;;;;;;;;;;;;;;14.96;100.00;99324.16;4943607;28;19914;-67
2021/10/19 04:50:15;;;;;;;;;;;;;;;14.78;100.00;99317.16;4944082;28;19984;-64
2021/10/19 04:52:40;;;;;;;;;;;;;;;14.80;100.00;99325.72;4950390;28;19987;-64
2021/10/19 04:55:06;;;;;;;;;;;;;;;14.99;100.00;99324.00;4953150;28;19915;-64
2021/10/19 04:57:31;;;;;;;;;;;;;;;14.88;100.00;99322.81;4951325;28;19914;-64
2021/10/19 04:59:57;;;;;;;;;;;;;;;14.81;100.00;99317.06;4947070;28;19913;-64
2021/10/19 05:02:22;;;;;;;;;;;;;;;14.81;100.00;99314.47;4950961;28;19914;-64
2021/10/19 05:04:47;;;;;;;;;;;;;;;14.80;100.00;99307.56;4917054;28;20025;-64
2021/10/19 05:07:13;;;;;;;;;;;;;;;14.83;100.00;99305.69;4928986;28;19923;-64
2021/10/19 05:09:38;;;;;;;;;;;;;;;14.36;100.00;99310.34;4942007;28;20973;-64
2021/10/19 05:12:04;;;;;;;;;;;;;;;14.33;100.00;99305.28;4942100;28;20022;-64
2021/10/19 05:14:29;;;;;;;;;;;;;;;14.34;100.00;99300.03;4933795;28;19922;-64
2021/10/19 05:16:55;;;;;;;;;;;;;;;14.25;100.00;99303.00;4961589;28;19921;-64
2021/10/19 05:19:20;;;;;;;;;;;;;;;14.41;100.00;99298.00;4952039;28;19923;-66
2021/10/19 05:21:45;;;;;;;;;;;;;;;14.40;100.00;99284.22;4944588;28;19906;-64
2021/10/19 05:24:11;;;;;;;;;;;;;;;14.35;100.00;99282.75;4919066;28;20276;-64
2021/10/19 05:26:36;;;;;;;;;;;;;;;14.21;100.00;99279.00;4953635;28;19942;-64
2021/10/19 05:29:01;;;;;;;;;;;;;;;14.23;100.00;99274.59;4952047;28;20006;-67
2021/10/19 05:31:27;;;;;;;;;;;;;;;13.94;100.00;99262.88;4935579;28;20391;-68
2021/10/19 05:33:52;;;;;;;;;;;;;;;14.19;100.00;99262.69;4942287;28;19918;-67
2021/10/19 05:36:17;;;;;;;;;;;;;;;14.29;100.00;99267.47;4930054;28;20457;-68
2021/10/19 05:38:43;;;;;;;;;;;;;;;14.10;100.00;99260.47;4921600;28;19983;-67
2021/10/19 05:41:08;;;;;;;;;;;;;;;14.10;100.00;99268.25;4932550;28;20377;-67
2021/10/19 05:43:34;;;;;;;;;;;;;;;14.25;100.00;99255.53;4943596;28;20009;-67
2021/10/19 05:45:59;;;;;;;;;;;;;;;14.29;100.00;99257.09;4934321;28;19944;-67
2021/10/19 05:48:24;;;;;;;;;;;;;;;14.28;100.00;99266.63;4930310;28;20394;-64
2021/10/19 05:50:50;;;;;;;;;;;;;;;14.33;100.00;99266.44;4916359;28;19916;-64
2021/10/19 05:53:16;;;;;;;;;;;;;;;14.44;100.00;99272.81;4923509;29;20009;-66
2021/10/19 05:55:42;;;;;;;;;;;;;;;14.57;100.00;99260.22;4938153;28;20431;-66
2021/10/19 05:58:07;;;;;;;;;;;;;;;14.14;100.00;99263.75;4941005;28;19983;-66
2021/10/19 06:00:33;;;;;;;;;;;;;;;14.55;100.00;99268.94;4937116;28;19933;-66
2021/10/19 06:02:58;;;;;;;;;;;;;;;14.64;100.00;99274.56;4943885;28;19921;-66
2021/10/19 06:05:23;;;;;;;;;;;;;;;14.56;100.00;99286.19;4938814;28;19922;-67
2021/10/19 06:07:51;;;;;;;;;;;;;;;14.67;100.00;99278.78;4952856;28;19923;-67
2021/10/19 06:10:20;;;;;;;;;;;;;;;14.54;100.00;99278.47;4970389;28;19917;-66
2021/10/19 06:12:45;;;;;;;;;;;;;;;14.58;100.00;99285.22;5012197;28;19914;-66
2021/10/19 06:15:10;;;;;;;;;;;;;;;14.60;100.00;99292.94;5012370;28;19924;-67
2021/10/19 06:17:36;;;;;;;;;;;;;;;14.37;100.00;99297.31;4941788;28;20003;-66
2021/10/19 06:20:01;;;;;;;;;;;;;;;14.59;100.00;99286.88;4959138;28;20934;-67
2021/10/19 06:22:27;;;;;;;;;;;;;;;14.80;100.00;99292.03;4935438;28;20413;-67
2021/10/19 06:24:52;;;;;;;;;;;;;;;14.52;100.00;99285.44;4937277;28;19914;-67
2021/10/19 06:27:18;;;;;;;;;;;;;;;14.54;100.00;99288.84;4934469;28;19969;-67
2021/10/19 06:29:43;;;;;;;;;;;;;;;14.72;100.00;99301.91;4940401;28;19931;-67
2021/10/19 06:32:09;;;;;;;;;;;;;;;14.52;100.00;99295.81;4934056;28;19960;-67
2021/10/19 06:34:34;;;;;;;;;;;;;;;14.83;100.00;99305.69;4934596;28;19918;-67
2021/10/19 06:36:59;;;;;;;;;;;;;;;14.93;100.00;99300.94;4932720;28;20941;-67
2021/10/19 06:39:25;;;;;;;;;;;;;;;15.10;100.00;99286.34;4937446;28;19919;-67
2021/10/19 06:41:50;;;;;;;;;;;;;;;15.03;100.00;99291.84;4903965;28;20397;-67
2021/10/19 06:44:16;;;;;;;;;;;;;;;15.01;100.00;99288.47;4933263;28;19919;-64
2021/10/19 06:46:42;;;;;;;;;;;;;;;14.77;100.00;99292.16;4963137;28;19927;-66
2021/10/19 06:49:07;;;;;;;;;;;;;;;14.92;100.00;99288.91;4943110;28;19922;-66
2021/10/19 06:51:33;;;;;;;;;;;;;;;14.86;100.00;99278.78;4952087;28;19924;-67
2021/10/19 06:53:58;;;;;;;;;;;;;;;14.81;100.00;99286.78;4936909;28;19950;-66
2021/10/19 06:56:23;;;;;;;;;;;;;;;14.58;100.00;99284.38;4995949;28;19945;-66
2021/10/19 06:58:49;;;;;;;;;;;;;;;14.76;100.00;99291.34;4962520;28;20426;-67
2021/10/19 07:01:16;;;;;;;;;;;;;;;14.59;100.00;99281.69;4927261;28;19919;-67
2021/10/19 07:03:41;;;;;;;;;;;;;;;14.76;100.00;99293.09;4937635;28;19958;-67
2021/10/19 07:06:06;;;;;;;;;;;;;;;14.60;100.00;99283.41;4924978;28;20006;-67
2021/10/19 07:08:33;;;;;;;;;;;;;;;14.75;100.00;99286.22;4942828;28;19928;-67
2021/10/19 07:10:58;;;;;;;;;;;;;;;14.85;100.00;99290.94;4940499;28;19917;-67
2021/10/19 07:13:24;;;;;;;;;;;;;;;14.88;100.00;99289.94;4948490;28;19972;-67
2021/10/19 07:15:53;;;;;;;;;;;;;;;14.89;100.00;99273.47;4945697;28;19972;-67
2021/10/19 07:18:18;;;;;;;;;;;;;;;14.82;100.00;99270.34;4938762;28;19930;-67
2021/10/19 07:20:44;;;;;;;;;;;;;;;14.75;100.00;99270.66;4935240;28;19914;-67
2021/10/19 07:23:09;;;;;;;;;;;;;;;14.97;100.00;99275.72;4946333;28;19913;-67
2021/10/19 07:25:35;;;;;;;;;;;;;;;14.89;100.00;99272.63;4947197;28;19917;-67
2021/10/19 07:28:00;;;;;;;;;;;;;;;14.77;100.00;99271.44;4942381;28;19915;-68
2021/10/19 07:30:26;;;;;;;;;;;;;;;14.98;100.00;99267.00;4946782;28;19949;-68
2021/10/19 07:32:53;;;;;;;;;;;;;;;14.83;100.00;99274.59;4942246;28;20069;-68
2021/10/19 07:35:19;;;;;;;;;;;;;;;15.16;100.00;99271.34;4947981;28;19919;-64
2021/10/19 07:37:45;;;;;;;;;;;;;;;15.01;100.00;99272.09;4953728;28;19961;-64
2021/10/19 07:40:10;;;;;;;;;;;;;;;14.86;100.00;99278.78;4940772;28;19947;-64
2021/10/19 07:42:36;;;;;;;;;;;;;;;15.00;100.00;99273.81;4959528;28;19917;-64
2021/10/19 07:45:02;;;;;;;;;;;;;;;15.29;100.00;99281.19;4948691;28;19927;-68
2021/10/19 07:47:28;;;;;;;;;;;;;;;15.18;100.00;99284.25;4927198;28;20084;-68
2021/10/19 07:49:53;;;;;;;;;;;;;;;15.14;100.00;99283.56;4949188;28;20013;-67
2021/10/19 07:52:19;;;;;;;;;;;;;;;15.41;100.00;99276.22;4931071;28;19920;-67
2021/10/19 07:54:44;;;;;;;;;;;;;;;15.43;100.00;99271.81;4995318;28;19921;-68
2021/10/19 07:57:10;;;;;;;;;;;;;;;15.55;100.00;99267.78;4931727;28;19915;-66
2021/10/19 07:59:35;;;;;;;;;;;;;;;15.74;100.00;99260.00;4942394;28;19957;-67
2021/10/19 08:02:00;;;;;;;;;;;;;;;15.55;100.00;99265.19;4942919;28;19953;-67
2021/10/19 08:04:26;;;;;;;;;;;;;;;15.61;100.00;99272.69;4930064;28;19926;-64
2021/10/19 08:06:51;;;;;;;;;;;;;;;15.82;100.00;99273.44;4936765;28;19930;-64
2021/10/19 08:09:16;;;;;;;;;;;;;;;15.74;100.00;99265.19;4916612;28;20394;-64
2021/10/19 08:11:42;;;;;;;;;;;;;;;15.83;100.00;99267.34;4926076;28;19914;-64
2021/10/19 08:14:07;;;;;;;;;;;;;;;15.70;100.00;99266.22;4917023;28;19915;-66
2021/10/19 08:16:33;;;;;;;;;;;;;;;15.63;100.00;99277.81;4921476;28;19915;-68
2021/10/19 08:18:58;;;;;;;;;;;;;;;15.73;100.00;99281.66;4931464;28;20435;-67
2021/10/19 08:21:24;;;;;;;;;;;;;;;15.93;100.00;99279.88;4930811;28;20284;-68
2021/10/19 08:23:50;;;;;;;;;;;;;;;15.70;100.00;99279.19;4929818;28;20446;-68
2021/10/19 08:26:15;;;;;;;;;;;;;;;15.87;100.00;99275.78;4927387;28;19960;-68
2021/10/19 08:28:43;;;;;;;;;;;;;;;15.69;100.00;99272.31;4931602;28;20448;-64
2021/10/19 08:31:10;;;;;;;;;;;;;;;15.88;100.00;99275.72;4947359;28;20004;-64
2021/10/19 08:33:35;;;;;;;;;;;;;;;15.72;100.00;99269.63;4942069;28;19962;-64
2021/10/19 08:36:01;;;;;;;;;;;;;;;16.20;100.00;99264.66;4960554;28;19966;-64
2021/10/19 08:38:26;;;;;;;;;;;;;;;16.09;100.00;99263.41;4943466;28;19969;-64
2021/10/19 08:40:52;;;;;;;;;;;;;;;16.35;100.00;99260.41;4954469;28;19930;-63
2021/10/19 08:43:20;;;;;;;;;;;;;;;16.03;100.00;99260.28;4903006;28;19941;-64
2021/10/19 08:45:46;;;;;;;;;;;;;;;16.20;100.00;99255.09;4953240;28;19923;-64
2021/10/19 08:48:11;;;;;;;;;;;;;;;16.44;100.00;99254.75;4953118;28;20001;-64
2021/10/19 08:50:37;;;;;;;;;;;;;;;16.30;100.00;99250.25;4952920;28;19986;-64
2021/10/19 08:53:02;;;;;;;;;;;;;;;16.19;100.00;99250.78;4960890;28;20291;-64
2021/10/19 08:55:27;;;;;;;;;;;;;;;16.27;100.00;99258.22;4956682;28;19918;-66
2021/10/19 08:57:56;;;;;;;;;;;;;;;16.58;100.00;99249.69;4930080;28;19922;-68
2021/10/19 09:00:27;;;;;;;;;;;;;;;16.53;100.00;99246.47;4930191;28;19922;-67
2021/10/19 09:02:53;;;;;;;;;;;;;;;16.23;100.00;99239.34;4936960;28;19919;-67
2021/10/19 09:05:22;;;;;;;;;;;;;;;16.40;100.00;99232.41;4944370;28;19940;-67
2021/10/19 09:07:58;;;;;;;;;;;;;;;16.51;100.00;99236.16;4981066;28;19927;-68
2021/10/19 09:10:24;;;;;;;;;;;;;;;16.45;100.00;99236.47;4934853;28;20012;-67
2021/10/19 09:12:56;;;;;;;;;;;;;;;16.25;100.00;99247.06;4946728;28;19978;-67
2021/10/19 09:15:26;;;;;;;;;;;;;;;16.46;100.00;99242.50;4935508;28;19921;-67
2021/10/19 09:17:51;;;;;;;;;;;;;;;16.77;100.00;99243.50;4935495;28;19919;-64
2021/10/19 09:20:18;;;;;;;;;;;;;;;16.77;100.00;99235.69;4945068;28;19938;-64
2021/10/19 09:22:59;;;;;;;;;;;;;;;16.79;100.00;99236.44;4935220;28;19918;-64
2021/10/19 09:25:25;;;;;;;;;;;;;;;16.98;100.00;99236.31;4942374;28;20041;-64
2021/10/19 09:27:52;;;;;;;;;;;;;;;16.86;100.00;99228.25;4948870;28;20000;-64
2021/10/19 09:30:18;;;;;;;;;;;;;;;16.67;100.00;99233.59;4941625;28;19915;-64
2021/10/19 09:32:50;;;;;;;;;;;;;;;16.33;100.00;99238.84;4936826;28;19915;-64
2021/10/19 09:35:19;;;;;;;;;;;;;;;16.81;100.00;99229.41;4938454;28;19916;-63
2021/10/19 09:37:54;;;;;;;;;;;;;;;16.89;100.00;99232.44;4982248;28;19927;-66
2021/10/19 09:40:28;;;;;;;;;;;;;;;16.97;100.00;99225.09;4953630;28;19947;-66
2021/10/19 09:42:58;;;;;;;;;;;;;;;17.03;100.00;99235.13;4916018;29;20423;-67
2021/10/19 09:45:26;;;;;;;;;;;;;;;17.14;100.00;99224.97;4900121;28;19926;-67
2021/10/19 09:47:54;;;;;;;;;;;;;;;17.58;100.00;99219.94;4916681;29;19921;-66
2021/10/19 09:50:19;;;;;;;;;;;;;;;17.35;100.00;99222.09;4915450;29;19911;-66
2021/10/19 09:52:44;;;;;;;;;;;;;;;17.09;100.00;99227.00;4899979;29;20547;-67
2021/10/19 09:55:12;;;;;;;;;;;;;;;17.17;100.00;99225.72;4899917;28;19916;-67
2021/10/19 09:57:42;;;;;;;;;;;;;;;17.24;100.00;99221.84;4915675;29;19911;-67
2021/10/19 10:00:10;;;;;;;;;;;;;;;17.20;100.00;99225.56;4915153;29;20052;-67
2021/10/19 10:02:39;;;;;;;;;;;;;;;17.19;100.00;99226.47;4915356;29;20404;-66
2021/10/19 10:05:05;;;;;;;;;;;;;;;17.18;100.00;99223.06;4915588;28;20054;-66
2021/10/19 10:07:31;;;;;;;;;;;;;;;17.41;100.00;99215.72;4946005;28;19997;-68
2021/10/19 10:09:57;;;;;;;;;;;;;;;17.28;100.00;99233.78;5014637;28;19924;-66
2021/10/19 10:12:32;;;;;;;;;;;;;;;17.59;100.00;99232.06;5014881;28;19913;-67
2021/10/19 10:14:57;;;;;;;;;;;;;;;17.74;100.00;99221.59;4998536;28;19913;-67
2021/10/19 10:17:23;;;;;;;;;;;;;;;17.73;100.00;99229.50;4997243;28;19919;-66
2021/10/19 10:19:49;;;;;;;;;;;;;;;18.10;100.00;99216.94;4998552;28;19953;-67
2021/10/19 10:22:15;;;;;;;;;;;;;;;17.76;100.00;99224.94;5014657;28;19921;-66
2021/10/19 10:24:42;;;;;;;;;;;;;;;17.74;100.00;99207.72;5014948;28;19924;-67
2021/10/19 10:27:15;;;;;;;;;;;;;;;17.88;100.00;99209.53;5014983;28;20394;-67
2021/10/19 10:29:44;;;;;;;;;;;;;;;17.73;100.00;99204.28;5015002;28;19924;-66
2021/10/19 10:32:20;;;;;;;;;;;;;;;17.81;100.00;99214.28;5014908;28;20564;-67
2021/10/19 10:34:45;;;;;;;;;;;;;;;17.90;100.00;99198.13;5014665;28;20379;-66
2021/10/19 10:37:11;;;;;;;;;;;;;;;17.69;100.00;99209.75;5015009;28;19917;-67
2021/10/19 10:39:41;;;;;;;;;;;;;;;18.05;100.00;99198.97;5014820;28;20369;-67
2021/10/19 10:42:08;;;;;;;;;;;;;;;17.80;100.00;99203.94;5013826;28;19952;-67
2021/10/19 10:44:37;;;;;;;;;;;;;;;17.89;100.00;99200.81;5011497;28;19914;-67
2021/10/19 10:47:06;;;;;;;;;;;;;;;17.87;100.00;99211.31;5010415;28;19917;-67
2021/10/19 10:49:32;;;;;;;;;;;;;;;17.89;100.00;99195.59;5011427;28;19917;-67
2021/10/19 10:51:58;;;;;;;;;;;;;;;17.93;100.00;99197.09;5011399;28;20634;-67
2021/10/19 10:54:24;;;;;;;;;;;;;;;17.68;100.00;99195.91;5011179;28;19914;-67
2021/10/19 10:56:50;;;;;;;;;;;;;;;18.08;100.00;99192.72;5011286;28;19921;-67
2021/10/19 10:59:32;;;;;;;;;;;;;;;18.25;100.00;99191.75;5011349;28;20482;-66
2021/10/19 11:02:07;;;;;;;;;;;;;;;17.93;100.00;99197.94;5011210;28;19921;-66
2021/10/19 11:04:33;;;;;;;;;;;;;;;18.00;100.00;99205.41;5010957;28;20407;-67
2021/10/19 11:06:58;;;;;;;;;;;;;;;18.16;100.00;99195.72;5010918;28;19979;-67
2021/10/19 11:09:27;;;;;;;;;;;;;;;17.88;100.00;99200.00;5011373;28;19944;-66
2021/10/19 11:11:53;;;;;;;;;;;;;;;17.76;100.00;99213.69;5011283;28;20303;-67
2021/10/19 11:14:20;;;;;;;;;;;;;;;18.16;100.00;99206.16;5010940;28;19921;-67
2021/10/19 11:16:49;;;;;;;;;;;;;;;17.63;100.00;99217.91;4994878;28;19914;-66
2021/10/19 11:19:17;;;;;;;;;;;;;;;18.10;100.00;99206.53;5010001;28;19913;-66
2021/10/19 11:21:43;;;;;;;;;;;;;;;17.80;100.00;99209.97;5011122;28;20415;-66
2021/10/19 11:24:09;;;;;;;;;;;;;;;18.35;100.00;99206.72;5011013;28;20003;-67
2021/10/19 11:26:34;;;;;;;;;;;;;;;17.85;100.00;99201.91;5010373;28;19940;-67
2021/10/19 11:29:00;;;;;;;;;;;;;;;18.05;100.00;99198.16;5010722;28;19945;-67
2021/10/19 11:31:27;;;;;;;;;;;;;;;18.36;100.00;99203.19;5011162;28;20448;-67
2021/10/19 11:33:52;;;;;;;;;;;;;;;18.53;100.00;99190.88;5011626;28;19913;-67
2021/10/19 11:36:17;;;;;;;;;;;;;;;18.41;100.00;99183.81;5011940;28;19913;-67
2021/10/19 11:38:49;;;;;;;;;;;;;;;18.56;100.00;99188.91;5010809;28;19913;-66
2021/10/19 11:41:15;;;;;;;;;;;;;;;18.41;100.00;99178.59;5010625;28;19914;-67
2021/10/19 11:43:45;;;;;;;;;;;;;;;18.83;100.00;99189.94;5010489;28;19929;-67
2021/10/19 11:46:11;;;;;;;;;;;;;;;18.62;100.00;99185.09;5010714;28;19917;-66
2021/10/19 11:48:37;;;;;;;;;;;;;;;18.58;100.00;99192.25;5010440;28;19914;-67
2021/10/19 11:51:02;;;;;;;;;;;;;;;18.48;100.00;99179.91;5004489;28;20329;-65
2021/10/19 11:53:28;;;;;;;;;;;;;;;18.69;100.00;99178.56;4937679;28;19913;-64
2021/10/19 11:55:54;;;;;;;;;;;;;;;18.37;100.00;99184.00;4953794;28;19919;-64
2021/10/19 11:58:22;;;;;;;;;;;;;;;18.29;100.00;99186.25;4949088;28;20001;-65
2021/10/19 12:00:50;;;;;;;;;;;;;;;18.31;100.00;99184.34;4961548;28;19933;-64
2021/10/19 12:03:15;;;;;;;;;;;;;;;18.56;100.00;99175.88;4937185;28;19927;-64
2021/10/19 12:05:42;;;;;;;;;;;;;;;18.68;100.00;99176.91;4941968;28;19977;-65
2021/10/19 12:08:08;;;;;;;;;;;;;;;18.62;100.00;99174.66;4959875;28;19988;-64
2021/10/19 12:10:34;;;;;;;;;;;;;;;18.74;100.00;99171.28;4951181;28;19958;-68
2021/10/19 12:13:07;;;;;;;;;;;;;;;18.61;100.00;99175.59;4934443;28;20379;-68
2021/10/19 12:15:33;;;;;;;;;;;;;;;18.85;100.00;99168.03;4941301;28;19941;-67
2021/10/19 12:18:06;;;;;;;;;;;;;;;18.64;100.00;99164.13;4943688;28;19919;-67
2021/10/19 12:20:36;;;;;;;;;;;;;;;18.95;100.00;99165.66;4937942;28;19930;-67
2021/10/19 12:23:03;;;;;;;;;;;;;;;18.77;100.00;99159.81;4944211;28;19923;-67
2021/10/19 12:25:34;;;;;;;;;;;;;;;18.85;100.00;99156.75;4940685;28;19989;-67
2021/10/19 12:28:00;;;;;;;;;;;;;;;18.21;100.00;99167.63;4923412;28;20395;-67
2021/10/19 12:30:25;;;;;;;;;;;;;;;18.66;100.00;99163.09;4943951;28;19930;-67